Time;durP1;ratioP1;P1;durP2;ratioP2;P2;SDS_P1;SDS_P2;PMS_P1;PMS_P2;Temp;Humidity;BMP_temperature;BMP_pressure;BME280_temperature;BME280_humidity;BME280_pressure;Samples;Min_cycle;Max_cycle;Signal;HPM_P1;HPM_P2
2023/10/03 00:00:58;;;;;;;9.63;7.00;;;10.10;99.90;;;;;;5091998;28;20464;-77
2023/10/03 00:03:24;;;;;;;9.45;5.53;;;10.10;99.90;;;;;;5091207;28;20089;-77
2023/10/03 00:05:51;;;;;;;12.38;7.63;;;10.10;99.90;;;;;;5092137;28;20016;-77
2023/10/03 00:08:18;;;;;;;10.98;5.82;;;10.10;99.90;;;;;;5092766;28;20032;-77
2023/10/03 00:10:45;;;;;;;10.38;6.20;;;10.10;99.90;;;;;;5091927;28;20420;-77
2023/10/03 00:13:12;;;;;;;10.32;5.60;;;10.10;99.90;;;;;;5091390;28;20016;-77
2023/10/03 00:15:45;;;;;;;6.57;5.38;;;10.10;99.90;;;;;;5093143;28;20037;-77
2023/10/03 00:18:15;;;;;;;10.55;5.55;;;10.10;99.90;;;;;;5091621;28;20052;-78
2023/10/03 00:20:41;;;;;;;9.02;5.50;;;10.10;99.90;;;;;;5091957;28;20031;-77
2023/10/03 00:23:07;;;;;;;6.65;5.00;;;10.10;99.90;;;;;;5092396;28;20389;-77
2023/10/03 00:25:34;;;;;;;9.35;6.75;;;10.10;99.90;;;;;;5093018;28;20027;-77
2023/10/03 00:28:00;;;;;;;14.68;6.90;;;10.00;99.90;;;;;;5066328;28;20110;-77
2023/10/03 00:30:27;;;;;;;15.15;11.23;;;10.00;99.90;;;;;;5079981;28;20525;-84
2023/10/03 00:32:58;;;;;;;9.63;7.10;;;9.90;99.90;;;;;;5060367;28;20112;-84
2023/10/03 00:35:26;;;;;;;8.00;6.55;;;9.80;99.90;;;;;;5072117;28;20027;-83
2023/10/03 00:37:53;;;;;;;10.43;7.63;;;9.70;99.90;;;;;;5055772;28;20477;-84
2023/10/03 00:42:51;;;;;;;10.32;7.38;;;9.80;99.90;;;;;;5073412;28;20033;-77
2023/10/03 00:45:21;;;;;;;11.30;7.55;;;9.80;99.90;;;;;;5071452;28;20016;-77
2023/10/03 00:47:54;;;;;;;10.73;7.57;;;9.80;99.90;;;;;;5066483;28;20036;-77
2023/10/03 00:50:28;;;;;;;14.10;7.80;;;9.90;99.90;;;;;;5072574;28;20505;-84
2023/10/03 00:53:00;;;;;;;19.08;14.70;;;9.80;99.90;;;;;;5078402;28;20393;-84
2023/10/03 00:55:27;;;;;;;24.17;17.27;;;9.80;99.90;;;;;;5076963;28;20016;-77
2023/10/03 00:58:06;;;;;;;16.45;13.15;;;9.90;99.90;;;;;;5077688;28;20082;-77
2023/10/03 01:00:49;;;;;;;8.85;7.10;;;9.90;99.90;;;;;;5076358;28;20099;-84
2023/10/03 01:03:31;;;;;;;14.85;8.98;;;9.90;99.90;;;;;;5071222;28;20016;-84
2023/10/03 01:06:08;;;;;;;11.00;8.05;;;9.80;99.90;;;;;;5073881;28;20032;-83
2023/10/03 01:08:38;;;;;;;13.13;8.20;;;9.80;99.90;;;;;;5051259;28;20563;-85
2023/10/03 01:11:15;;;;;;;10.52;8.07;;;9.80;99.90;;;;;;5080718;28;20023;-77
2023/10/03 01:13:56;;;;;;;9.82;6.78;;;9.80;99.90;;;;;;5075412;28;20017;-77
2023/10/03 01:16:33;;;;;;;8.90;6.15;;;9.90;99.90;;;;;;5074303;28;20020;-83
2023/10/03 01:19:14;;;;;;;12.48;6.72;;;9.90;99.90;;;;;;5079845;28;20055;-83
2023/10/03 01:21:41;;;;;;;9.57;7.00;;;9.90;99.90;;;;;;5075539;28;20024;-83
2023/10/03 01:24:14;;;;;;;11.05;7.10;;;9.90;99.90;;;;;;5080649;28;20035;-76
2023/10/03 01:26:40;;;;;;;8.15;6.60;;;9.90;99.90;;;;;;5075450;28;20101;-78
2023/10/03 01:29:05;;;;;;;12.10;7.93;;;9.90;99.90;;;;;;5080782;28;20469;-77
2023/10/03 01:31:31;;;;;;;12.60;6.85;;;9.90;99.90;;;;;;5071100;28;20159;-84
2023/10/03 01:33:57;;;;;;;9.32;6.07;;;9.90;99.90;;;;;;5079276;28;20024;-83
2023/10/03 01:36:23;;;;;;;7.80;6.57;;;9.90;99.90;;;;;;5075295;28;20082;-77
2023/10/03 01:38:48;;;;;;;10.50;6.13;;;9.90;99.90;;;;;;5076431;28;20051;-77
2023/10/03 01:41:14;;;;;;;10.93;6.82;;;10.00;99.90;;;;;;5082679;28;20115;-84
2023/10/03 01:43:43;;;;;;;9.93;6.72;;;10.00;99.90;;;;;;5086310;28;20470;-76
2023/10/03 01:46:09;;;;;;;11.45;7.90;;;10.00;99.90;;;;;;5092389;28;20031;-76
2023/10/03 01:48:36;;;;;;;10.23;6.68;;;9.90;99.90;;;;;;5090037;28;20071;-83
2023/10/03 01:51:02;;;;;;;10.98;6.97;;;9.90;99.90;;;;;;5090916;28;20035;-83
2023/10/03 01:53:29;;;;;;;8.13;7.25;;;9.90;99.90;;;;;;5090245;28;20020;-83
2023/10/03 01:55:56;;;;;;;14.77;10.30;;;9.90;99.90;;;;;;5082736;28;20021;-77
2023/10/03 01:58:24;;;;;;;11.80;9.15;;;9.90;99.90;;;;;;5071277;28;20115;-77
2023/10/03 02:00:50;;;;;;;13.02;8.57;;;9.80;99.90;;;;;;5091973;28;20520;-77
2023/10/03 02:03:18;;;;;;;10.70;8.02;;;9.80;99.90;;;;;;5087535;28;20020;-76
2023/10/03 02:05:45;;;;;;;8.90;7.25;;;9.80;99.90;;;;;;5084222;28;20073;-77
2023/10/03 02:08:17;;;;;;;11.68;7.30;;;9.80;99.90;;;;;;5082955;28;20431;-77
2023/10/03 02:10:50;;;;;;;8.45;6.88;;;9.80;99.90;;;;;;5087343;28;20020;-76
2023/10/03 02:13:19;;;;;;;8.02;6.13;;;9.80;99.90;;;;;;5072491;28;20396;-76
2023/10/03 02:15:47;;;;;;;8.65;6.05;;;9.80;99.90;;;;;;5087385;28;20032;-77
2023/10/03 02:18:14;;;;;;;8.55;6.25;;;9.80;99.90;;;;;;5076502;28;20073;-77
2023/10/03 02:20:47;;;;;;;9.23;5.47;;;9.80;99.90;;;;;;5071384;28;20505;-76
2023/10/03 02:23:20;;;;;;;5.72;4.97;;;9.80;99.90;;;;;;5076978;28;20073;-76
2023/10/03 02:25:47;;;;;;;8.82;5.40;;;9.80;99.90;;;;;;5079962;28;20016;-76
2023/10/03 02:28:15;;;;;;;10.77;5.57;;;9.80;99.90;;;;;;5076890;28;20502;-76
2023/10/03 02:30:41;;;;;;;7.85;5.25;;;9.70;99.90;;;;;;5080058;28;20470;-77
2023/10/03 02:33:13;;;;;;;9.13;6.40;;;9.70;99.90;;;;;;5077222;28;20097;-77
2023/10/03 02:35:39;;;;;;;10.05;5.57;;;9.70;99.90;;;;;;5077318;28;20021;-77
2023/10/03 02:38:09;;;;;;;8.85;5.53;;;9.70;99.90;;;;;;5078284;28;20047;-77
2023/10/03 02:40:35;;;;;;;9.32;5.55;;;9.70;99.90;;;;;;5074907;28;20383;-77
2023/10/03 02:43:01;;;;;;;8.65;5.28;;;9.70;99.90;;;;;;5074728;28;20047;-77
2023/10/03 02:45:27;;;;;;;8.75;5.60;;;9.70;99.90;;;;;;5073915;28;20059;-77
2023/10/03 02:48:03;;;;;;;8.13;5.50;;;9.70;99.90;;;;;;5074282;28;20095;-84
2023/10/03 02:50:32;;;;;;;10.38;5.50;;;9.70;99.90;;;;;;5073761;28;20016;-83
2023/10/03 02:52:59;;;;;;;10.38;5.13;;;9.60;99.90;;;;;;5075051;28;20028;-84
2023/10/03 02:55:25;;;;;;;8.32;5.72;;;9.60;99.90;;;;;;5074468;28;20071;-84
2023/10/03 02:57:51;;;;;;;7.13;5.47;;;9.60;99.90;;;;;;5075006;28;20478;-83
2023/10/03 03:00:18;;;;;;;13.13;5.45;;;9.50;99.90;;;;;;5071876;28;20043;-83
2023/10/03 03:02:47;;;;;;;15.55;6.20;;;9.50;99.90;;;;;;5071917;28;20021;-83
2023/10/03 03:05:16;;;;;;;11.85;6.35;;;9.50;99.90;;;;;;5078647;28;20073;-83
2023/10/03 03:07:44;;;;;;;17.38;5.30;;;9.50;99.90;;;;;;5074966;28;20071;-83
2023/10/03 03:10:14;;;;;;;14.18;7.18;;;9.50;99.90;;;;;;5078393;28;20024;-82
2023/10/03 03:12:41;;;;;;;8.90;6.03;;;9.40;99.90;;;;;;5092584;28;20024;-83
2023/10/03 03:15:08;;;;;;;8.32;5.68;;;9.40;99.90;;;;;;5090776;28;20114;-83
2023/10/03 03:17:33;;;;;;;8.85;5.68;;;9.30;99.90;;;;;;5085865;28;20028;-82
2023/10/03 03:20:02;;;;;;;11.10;8.05;;;9.30;99.90;;;;;;5074091;28;20028;-82
2023/10/03 03:22:29;;;;;;;13.20;7.32;;;9.30;99.90;;;;;;5092813;28;20103;-82
2023/10/03 03:24:58;;;;;;;11.57;6.82;;;9.30;99.90;;;;;;5093819;28;20035;-83
2023/10/03 03:27:26;;;;;;;7.90;5.65;;;9.20;99.90;;;;;;5091348;28;20039;-83
2023/10/03 03:30:22;;;;;;;12.05;6.25;;;9.20;99.90;;;;;;5092333;28;20020;-84
2023/10/03 03:32:43;;;;;;;10.73;6.88;;;9.20;99.90;;;;;;5073287;28;20032;-84
2023/10/03 03:35:09;;;;;;;12.30;6.28;;;9.20;99.90;;;;;;5082261;28;20556;-83
2023/10/03 03:37:37;;;;;;;10.55;6.20;;;9.10;99.90;;;;;;5085752;28;20113;-83
2023/10/03 03:40:12;;;;;;;7.53;4.72;;;9.10;99.90;;;;;;5072853;28;20070;-82
2023/10/03 03:42:38;;;;;;;8.32;5.30;;;9.10;99.90;;;;;;5077880;28;20031;-83
2023/10/03 03:45:04;;;;;;;18.98;5.05;;;9.10;99.90;;;;;;5069576;28;20025;-84
2023/10/03 03:47:33;;;;;;;12.25;5.18;;;9.10;99.90;;;;;;5084574;28;20397;-84
2023/10/03 03:50:01;;;;;;;6.85;5.43;;;9.10;99.90;;;;;;5073835;28;20527;-83
2023/10/03 03:52:32;;;;;;;6.18;4.90;;;9.10;99.90;;;;;;5074206;28;20032;-83
2023/10/03 03:55:03;;;;;;;8.27;4.32;;;9.10;99.90;;;;;;5072465;28;20032;-83
2023/10/03 03:57:29;;;;;;;7.18;4.15;;;9.10;99.90;;;;;;5072084;28;20024;-83
2023/10/03 03:59:56;;;;;;;5.57;3.90;;;9.10;99.90;;;;;;5073985;28;20025;-83
2023/10/03 04:02:22;;;;;;;7.82;4.88;;;9.10;99.90;;;;;;5073032;28;20028;-83
2023/10/03 04:04:48;;;;;;;8.15;4.00;;;9.00;99.90;;;;;;5073370;28;20020;-84
2023/10/03 04:07:13;;;;;;;9.48;4.97;;;9.00;99.90;;;;;;5073863;28;20039;-83
2023/10/03 04:09:39;;;;;;;7.95;5.72;;;9.00;99.90;;;;;;5074056;28;20028;-83
2023/10/03 04:12:05;;;;;;;11.02;6.22;;;9.00;99.90;;;;;;5090560;28;20055;-83
2023/10/03 04:14:31;;;;;;;8.85;6.35;;;8.90;99.90;;;;;;5083939;28;20409;-83
2023/10/03 04:16:56;;;;;;;9.63;5.53;;;8.90;99.90;;;;;;5073072;28;20033;-82
2023/10/03 04:19:23;;;;;;;7.55;5.80;;;8.90;99.90;;;;;;5079470;28;20032;-85
2023/10/03 04:21:48;;;;;;;7.88;5.32;;;8.80;99.90;;;;;;5073772;28;20031;-85
2023/10/03 04:24:16;;;;;;;6.85;5.43;;;8.80;99.90;;;;;;5086613;28;20028;-85
2023/10/03 04:26:42;;;;;;;6.30;5.30;;;8.80;99.90;;;;;;5074861;28;20032;-85
2023/10/03 04:29:13;;;;;;;7.88;5.68;;;8.80;99.90;;;;;;5079282;28;20024;-84
2023/10/03 04:31:39;;;;;;;5.70;4.45;;;8.70;99.90;;;;;;5067399;28;20032;-84
2023/10/03 04:34:07;;;;;;;8.43;5.60;;;8.70;99.90;;;;;;5075757;28;20035;-84
2023/10/03 04:36:34;;;;;;;8.25;5.00;;;8.70;99.90;;;;;;5075942;28;20666;-84
2023/10/03 04:39:01;;;;;;;6.40;4.78;;;8.70;99.90;;;;;;5075820;28;20050;-84
2023/10/03 04:41:28;;;;;;;7.20;4.75;;;8.60;99.90;;;;;;5074286;28;20506;-85
2023/10/03 04:43:55;;;;;;;6.97;4.95;;;8.60;99.90;;;;;;5071657;28;20085;-85
2023/10/03 04:46:21;;;;;;;8.18;4.75;;;8.60;99.90;;;;;;5072535;28;20020;-85
2023/10/03 04:48:47;;;;;;;6.20;4.13;;;8.60;99.90;;;;;;5077448;28;20028;-85
2023/10/03 04:51:15;;;;;;;8.95;4.45;;;8.60;99.90;;;;;;5076646;28;20421;-85
2023/10/03 04:53:41;;;;;;;7.22;4.57;;;8.60;99.90;;;;;;5079867;28;20115;-85
2023/10/03 04:56:07;;;;;;;7.35;5.05;;;8.60;99.90;;;;;;5078075;28;20115;-85
2023/10/03 04:58:32;;;;;;;7.95;4.55;;;8.60;99.90;;;;;;5075371;28;20470;-84
2023/10/03 05:00:58;;;;;;;6.00;4.97;;;8.60;99.90;;;;;;5086417;28;20411;-84
2023/10/03 05:03:24;;;;;;;6.35;4.32;;;8.60;99.90;;;;;;5077554;28;20058;-84
2023/10/03 05:05:52;;;;;;;7.30;4.50;;;8.60;99.90;;;;;;5080181;28;20024;-83
2023/10/03 05:08:18;;;;;;;7.20;5.20;;;8.60;99.90;;;;;;5088038;28;20029;-82
2023/10/03 05:10:44;;;;;;;13.30;5.70;;;8.60;99.90;;;;;;5078238;28;20052;-84
2023/10/03 05:13:10;;;;;;;14.50;7.00;;;8.60;99.90;;;;;;5090053;28;20008;-83
2023/10/03 05:15:36;;;;;;;12.88;6.72;;;8.60;99.90;;;;;;5077470;28;20097;-84
2023/10/03 05:18:03;;;;;;;20.70;9.75;;;8.60;99.90;;;;;;5079902;28;20036;-84
2023/10/03 05:20:37;;;;;;;23.08;12.52;;;8.60;99.90;;;;;;5074888;28;20099;-77
2023/10/03 05:23:04;;;;;;;35.28;15.93;;;8.60;99.90;;;;;;5074492;28;20021;-83
2023/10/03 05:25:36;;;;;;;25.02;12.30;;;8.60;99.90;;;;;;5080952;28;20013;-83
2023/10/03 05:28:02;;;;;;;25.43;13.27;;;8.60;99.90;;;;;;5079974;28;20565;-84
2023/10/03 05:30:30;;;;;;;23.63;11.73;;;8.60;99.90;;;;;;5084509;28;20329;-84
2023/10/03 05:32:55;;;;;;;17.45;9.48;;;8.60;99.90;;;;;;5079700;28;20069;-84
2023/10/03 05:35:21;;;;;;;20.88;8.93;;;8.70;99.90;;;;;;5085504;28;20381;-77
2023/10/03 05:37:50;;;;;;;17.95;8.43;;;8.70;99.90;;;;;;5088958;28;20016;-77
2023/10/03 05:40:19;;;;;;;29.92;14.98;;;8.80;99.90;;;;;;5079674;28;20101;-84
2023/10/03 05:42:47;;;;;;;30.95;13.88;;;8.80;99.90;;;;;;5090824;28;20381;-83
2023/10/03 05:45:13;;;;;;;21.27;11.27;;;8.90;99.90;;;;;;5086990;28;20028;-77
2023/10/03 05:47:44;;;;;;;26.40;11.93;;;9.00;99.90;;;;;;5077755;28;20098;-77
2023/10/03 05:50:11;;;;;;;21.13;12.02;;;9.10;99.90;;;;;;5076596;28;20023;-79
2023/10/03 05:52:37;;;;;;;21.23;11.93;;;9.20;99.90;;;;;;5094036;28;20366;-77
2023/10/03 05:55:03;;;;;;;19.48;10.63;;;9.30;99.90;;;;;;5083111;28;20029;-77
2023/10/03 05:57:28;;;;;;;14.75;8.98;;;9.40;99.90;;;;;;5076302;28;20500;-77
2023/10/03 05:59:54;;;;;;;16.38;8.07;;;9.60;99.90;;;;;;5073754;28;20107;-77
2023/10/03 06:02:21;;;;;;;12.25;7.55;;;9.70;99.90;;;;;;5073488;28;20023;-77
2023/10/03 06:04:47;;;;;;;11.95;7.13;;;9.80;99.90;;;;;;5072413;28;20039;-77
2023/10/03 06:07:13;;;;;;;17.45;8.10;;;10.00;99.90;;;;;;5080113;28;20029;-77
2023/10/03 06:09:39;;;;;;;12.60;8.75;;;10.20;99.90;;;;;;5087535;28;20020;-77
2023/10/03 06:12:05;;;;;;;15.05;7.15;;;10.40;99.90;;;;;;5079655;28;20028;-77
2023/10/03 06:14:30;;;;;;;11.73;8.10;;;10.50;99.90;;;;;;5085364;28;20031;-77
2023/10/03 06:16:56;;;;;;;14.45;7.82;;;10.70;99.90;;;;;;5080752;28;20020;-77
2023/10/03 06:19:22;;;;;;;18.73;9.32;;;10.90;99.90;;;;;;5074011;28;20036;-77
2023/10/03 06:21:47;;;;;;;21.90;10.20;;;11.10;99.90;;;;;;5073989;28;20032;-77
2023/10/03 06:24:14;;;;;;;24.95;10.35;;;11.30;99.90;;;;;;5078830;28;20377;-77
2023/10/03 06:26:44;;;;;;;19.85;10.10;;;11.50;99.90;;;;;;5083350;28;20035;-77
2023/10/03 06:29:10;;;;;;;24.40;10.90;;;11.70;99.90;;;;;;5079015;28;20370;-77
2023/10/03 06:31:36;;;;;;;26.23;11.23;;;11.90;99.90;;;;;;5084204;28;20070;-77
2023/10/03 06:34:03;;;;;;;23.30;12.02;;;12.10;99.90;;;;;;5073937;28;20016;-77
2023/10/03 06:36:29;;;;;;;19.13;9.50;;;12.30;99.90;;;;;;5084133;28;20031;-77
2023/10/03 06:38:54;;;;;;;19.40;10.38;;;12.50;99.90;;;;;;5087940;28;20044;-77
2023/10/03 06:41:21;;;;;;;24.85;11.63;;;12.70;99.90;;;;;;5089084;28;20024;-77
2023/10/03 06:43:47;;;;;;;24.15;13.10;;;12.90;99.90;;;;;;5088813;28;20020;-77
2023/10/03 06:46:15;;;;;;;25.05;14.25;;;13.10;99.90;;;;;;5088669;28;20488;-77
2023/10/03 06:48:43;;;;;;;33.60;17.48;;;13.40;99.90;;;;;;5076007;28;20397;-77
2023/10/03 06:51:09;;;;;;;33.30;20.88;;;13.60;99.90;;;;;;5079651;28;20024;-77
2023/10/03 06:53:35;;;;;;;31.70;18.80;;;13.70;99.90;;;;;;5073614;28;20482;-78
2023/10/03 06:56:00;;;;;;;35.90;21.73;;;13.90;99.90;;;;;;5060399;28;20025;-77
2023/10/03 06:58:27;;;;;;;29.02;16.42;;;14.20;99.90;;;;;;5073338;28;20029;-77
2023/10/03 07:00:54;;;;;;;28.35;16.17;;;14.40;99.90;;;;;;5067257;28;20029;-77
2023/10/03 07:03:21;;;;;;;23.95;14.43;;;14.60;99.90;;;;;;5080139;28;20016;-77
2023/10/03 07:05:47;;;;;;;21.35;11.07;;;14.80;99.90;;;;;;5086497;28;20024;-77
2023/10/03 07:08:12;;;;;;;22.48;9.27;;;15.10;99.90;;;;;;5077869;28;20127;-77
2023/10/03 07:10:41;;;;;;;14.05;7.40;;;15.30;99.90;;;;;;5076343;28;20048;-77
2023/10/03 07:13:08;;;;;;;13.95;7.80;;;15.50;99.90;;;;;;5075391;28;20414;-77
2023/10/03 07:15:33;;;;;;;16.98;7.82;;;15.80;99.90;;;;;;5074884;28;20021;-77
2023/10/03 07:17:59;;;;;;;15.98;7.82;;;15.90;99.90;;;;;;5073765;28;20074;-77
2023/10/03 07:20:25;;;;;;;17.77;8.25;;;16.20;99.90;;;;;;5074826;28;20024;-77
2023/10/03 07:22:50;;;;;;;11.88;7.20;;;16.30;99.90;;;;;;5090094;28;20054;-78
2023/10/03 07:25:16;;;;;;;10.80;6.05;;;16.50;99.90;;;;;;5078095;28;20140;-78
2023/10/03 07:27:42;;;;;;;11.55;6.90;;;16.70;99.90;;;;;;5088802;28;20531;-77
2023/10/03 07:30:09;;;;;;;9.38;6.32;;;16.90;99.90;;;;;;5088704;28;20032;-78
2023/10/03 07:32:35;;;;;;;10.43;6.18;;;17.10;99.90;;;;;;5088431;28;20020;-77
2023/10/03 07:35:02;;;;;;;10.95;6.40;;;17.20;99.90;;;;;;5077495;28;20035;-77
2023/10/03 07:37:28;;;;;;;12.48;7.85;;;17.30;99.90;;;;;;5078100;28;20028;-77
2023/10/03 07:39:54;;;;;;;12.95;7.90;;;17.50;99.90;;;;;;5077102;28;20063;-77
2023/10/03 07:42:23;;;;;;;18.35;9.00;;;17.70;99.90;;;;;;5079421;28;20107;-78
2023/10/03 07:44:52;;;;;;;15.85;10.85;;;17.80;99.90;;;;;;5075142;28;20494;-78
2023/10/03 07:47:18;;;;;;;11.38;6.75;;;18.00;99.90;;;;;;5073991;28;20028;-77
2023/10/03 07:49:45;;;;;;;26.75;12.70;;;18.10;99.90;;;;;;5089280;28;20107;-78
2023/10/03 07:52:10;;;;;;;16.42;7.93;;;18.20;99.90;;;;;;5093668;28;20024;-79
2023/10/03 07:54:37;;;;;;;14.52;7.63;;;18.30;99.90;;;;;;5083173;28;20102;-80
2023/10/03 07:57:05;;;;;;;12.27;6.95;;;18.40;99.90;;;;;;5079907;28;20021;-79
2023/10/03 07:59:32;;;;;;;11.65;7.18;;;18.60;99.90;;;;;;5076088;28;20020;-80
2023/10/03 08:02:04;;;;;;;8.73;5.95;;;18.70;99.90;;;;;;5081525;28;20020;-80
2023/10/03 08:04:31;;;;;;;8.88;5.72;;;18.80;99.90;;;;;;5064981;28;20024;-78
2023/10/03 08:06:57;;;;;;;14.00;7.40;;;19.00;99.90;;;;;;5082616;28;20254;-77
2023/10/03 08:09:24;;;;;;;8.55;5.15;;;19.20;99.90;;;;;;5080728;28;20085;-77
2023/10/03 08:11:52;;;;;;;11.60;5.57;;;19.20;99.90;;;;;;5081033;28;20036;-77
2023/10/03 08:14:18;;;;;;;6.38;4.68;;;19.40;99.90;;;;;;5080310;28;20562;-77
2023/10/03 08:16:45;;;;;;;11.90;6.13;;;19.50;99.90;;;;;;5082248;28;20028;-77
2023/10/03 08:19:24;;;;;;;16.08;8.10;;;19.60;99.90;;;;;;5078953;28;20026;-77
2023/10/03 08:21:54;;;;;;;8.75;5.28;;;19.70;99.90;;;;;;5082691;28;20016;-77
2023/10/03 08:24:28;;;;;;;6.90;4.97;;;19.80;99.90;;;;;;5086821;28;20019;-79
2023/10/03 08:27:01;;;;;;;9.25;6.25;;;19.90;99.90;;;;;;5087309;28;20024;-77
2023/10/03 08:29:28;;;;;;;9.90;6.20;;;20.10;99.90;;;;;;5086359;28;20115;-78
2023/10/03 08:31:59;;;;;;;11.13;6.28;;;20.20;99.90;;;;;;5085281;28;20043;-78
2023/10/03 08:34:26;;;;;;;10.50;5.15;;;20.30;99.90;;;;;;5079735;28;20387;-79
2023/10/03 08:36:58;;;;;;;8.63;5.57;;;20.40;99.90;;;;;;5076815;28;20527;-79
2023/10/03 08:39:25;;;;;;;9.27;5.03;;;20.50;99.80;;;;;;5067206;28;20064;-79
2023/10/03 08:42:43;;;;;;;8.15;5.15;;;20.60;95.90;;;;;;5070066;28;20124;-78
2023/10/03 08:45:22;;;;;;;9.27;4.53;;;20.70;90.60;;;;;;5051813;28;20047;-78
2023/10/03 08:47:53;;;;;;;6.47;4.72;;;20.70;90.60;;;;;;5064513;28;20056;-78
2023/10/03 08:50:37;;;;;;;9.85;5.28;;;20.80;89.20;;;;;;5067946;28;20032;-79
2023/10/03 08:53:13;;;;;;;8.40;5.03;;;20.90;88.10;;;;;;5073949;28;20035;-79
2023/10/03 08:55:45;;;;;;;10.05;5.18;;;21.00;87.50;;;;;;5086174;28;20040;-78
2023/10/03 08:58:18;;;;;;;8.48;4.88;;;21.10;85.80;;;;;;5081540;28;20021;-79
2023/10/03 09:00:46;;;;;;;9.13;5.43;;;21.20;85.20;;;;;;5076393;28;20054;-79
2023/10/03 09:03:14;;;;;;;12.90;5.80;;;21.30;81.90;;;;;;5075608;28;20024;-78
2023/10/03 09:05:41;;;;;;;14.10;4.53;;;21.30;79.10;;;;;;5067658;28;20052;-79
2023/10/03 09:08:11;;;;;;;10.00;5.60;;;21.30;78.40;;;;;;5070347;28;20093;-78
2023/10/03 09:10:51;;;;;;;16.30;6.82;;;21.50;80.00;;;;;;5084169;28;20473;-79
2023/10/03 09:13:23;;;;;;;11.02;5.30;;;21.60;81.60;;;;;;5081642;28;20008;-78
2023/10/03 09:15:59;;;;;;;12.68;5.28;;;21.70;79.60;;;;;;5075795;28;20033;-78
2023/10/03 09:18:40;;;;;;;12.25;5.95;;;21.70;76.40;;;;;;5067444;28;20029;-78
2023/10/03 09:21:06;;;;;;;9.73;4.93;;;21.70;77.30;;;;;;5078297;28;20044;-79
2023/10/03 09:23:41;;;;;;;14.05;6.20;;;21.80;74.90;;;;;;5078909;28;20024;-79
2023/10/03 09:26:07;;;;;;;20.63;9.75;;;21.80;72.60;;;;;;5078580;28;20043;-79
2023/10/03 09:28:40;;;;;;;13.95;6.20;;;21.90;72.60;;;;;;5069490;28;20501;-78
2023/10/03 09:31:08;;;;;;;;;;;22.00;74.40;;;;;;5074790;28;20044;-78
2023/10/03 09:33:38;;;;;;;11.00;4.65;;;22.00;71.00;;;;;;5069076;28;19905;-79
2023/10/03 09:36:05;;;;;;;14.35;6.63;;;22.10;71.60;;;;;;5070476;28;20128;-79
2023/10/03 09:38:45;;;;;;;13.70;6.38;;;22.10;71.20;;;;;;5076318;28;20041;-79
2023/10/03 09:41:17;;;;;;;13.50;6.30;;;22.20;71.30;;;;;;5075319;28;20032;-78
2023/10/03 09:43:53;;;;;;;11.23;5.57;;;22.20;70.50;;;;;;5077531;28;20024;-79
2023/10/03 09:46:23;;;;;;;9.45;4.82;;;22.30;69.50;;;;;;5071465;28;20029;-79
2023/10/03 09:48:56;;;;;;;6.65;4.13;;;22.40;70.90;;;;;;5062937;28;20063;-78
2023/10/03 09:51:36;;;;;;;;;;;22.30;69.10;;;;;;5070647;28;20034;-78
2023/10/03 09:54:08;;;;;;;10.10;5.15;;;22.30;67.30;;;;;;5073468;28;19940;-77
2023/10/03 09:56:40;;;;;;;10.32;5.03;;;22.30;68.50;;;;;;5082466;28;20485;-78
2023/10/03 09:59:07;;;;;;;17.27;7.70;;;22.40;68.70;;;;;;5077885;28;20021;-78
2023/10/03 10:01:39;;;;;;;12.40;6.28;;;22.40;69.00;;;;;;5068774;28;20029;-78
2023/10/03 10:04:07;;;;;;;10.75;6.22;;;22.50;70.40;;;;;;5074739;28;20112;-78
2023/10/03 10:06:41;;;;;;;9.18;4.88;;;22.50;69.70;;;;;;5073442;28;20021;-78
2023/10/03 10:09:23;;;;;;;12.25;6.05;;;22.60;68.30;;;;;;5064890;28;20032;-79
2023/10/03 10:12:21;;;;;;;5.65;4.30;;;22.70;69.30;;;;;;5070427;28;20032;-78
2023/10/03 10:15:13;;;;;;;13.90;6.00;;;22.70;69.70;;;;;;5070583;28;20060;-78
2023/10/03 10:17:45;;;;;;;16.27;6.57;;;22.80;70.00;;;;;;5073200;28;20428;-78
2023/10/03 10:20:17;;;;;;;14.45;6.63;;;22.80;68.10;;;;;;5059391;28;20053;-78
2023/10/03 10:22:58;;;;;;;;;;;22.90;67.30;;;;;;5077898;28;20465;-78
2023/10/03 10:25:28;;;;;;;14.55;7.30;;;23.00;66.40;;;;;;5076813;28;19995;-78
2023/10/03 10:28:08;;;;;;;16.13;7.50;;;23.00;66.10;;;;;;5080314;28;20047;-78
2023/10/03 10:30:34;;;;;;;12.43;5.68;;;23.10;66.60;;;;;;5075610;28;20520;-77
2023/10/03 10:33:18;;;;;;;9.52;5.15;;;23.10;66.90;;;;;;5077931;28;20043;-78
2023/10/03 10:36:10;;;;;;;366.40;122.78;;;23.10;65.80;;;;;;5072066;28;20069;-77
2023/10/03 10:38:35;;;;;;;11.32;5.53;;;23.20;66.40;;;;;;5074477;28;20055;-77
2023/10/03 10:41:26;;;;;;;12.25;6.78;;;23.20;67.70;;;;;;5074993;28;20033;-76
2023/10/03 10:44:06;;;;;;;9.25;5.70;;;23.30;68.10;;;;;;5074240;28;20119;-77
2023/10/03 10:46:39;;;;;;;12.38;6.95;;;23.40;68.00;;;;;;5077081;28;20412;-76
2023/10/03 10:49:30;;;;;;;9.40;5.25;;;23.40;66.90;;;;;;5073053;28;20037;-77
2023/10/03 10:51:57;;;;;;;9.18;5.13;;;23.40;66.00;;;;;;5065528;28;20390;-76
2023/10/03 10:54:26;;;;;;;8.38;5.20;;;23.40;65.10;;;;;;5071564;28;20032;-78
2023/10/03 10:57:03;;;;;;;15.80;7.65;;;23.40;65.20;;;;;;5083555;28;20047;-77
2023/10/03 10:59:31;;;;;;;13.07;7.78;;;23.50;66.80;;;;;;5076334;28;20029;-77
2023/10/03 11:01:58;;;;;;;16.33;7.53;;;23.50;66.20;;;;;;5071915;28;20033;-78
2023/10/03 11:04:24;;;;;;;18.63;7.28;;;23.50;65.50;;;;;;5074034;28;20032;-76
2023/10/03 11:06:52;;;;;;;10.27;5.85;;;23.50;65.30;;;;;;5073126;28;20044;-76
2023/10/03 11:09:20;;;;;;;11.40;6.07;;;23.50;65.60;;;;;;5073223;28;20012;-76
2023/10/03 11:11:47;;;;;;;12.30;5.90;;;23.50;64.20;;;;;;5072158;28;20017;-76
2023/10/03 11:14:29;;;;;;;9.55;6.00;;;23.60;65.20;;;;;;5071864;28;20067;-77
2023/10/03 11:16:56;;;;;;;14.70;7.15;;;23.60;65.50;;;;;;5077675;28;20035;-76
2023/10/03 11:19:22;;;;;;;15.80;7.90;;;23.70;64.60;;;;;;5069198;28;20017;-77
2023/10/03 11:21:48;;;;;;;13.93;7.75;;;23.70;63.60;;;;;;5073093;28;20489;-76
2023/10/03 11:24:22;;;;;;;13.98;6.53;;;23.70;63.50;;;;;;5070662;28;20020;-77
2023/10/03 11:26:53;;;;;;;11.90;7.00;;;23.70;63.10;;;;;;5067129;28;20086;-76
2023/10/03 11:29:35;;;;;;;12.73;7.22;;;23.70;63.60;;;;;;5072979;28;20416;-76
2023/10/03 11:32:02;;;;;;;;;;;23.80;64.90;;;;;;5072555;28;20072;-76
2023/10/03 11:34:31;;;;;;;15.65;8.52;;;23.80;63.90;;;;;;5072773;28;19949;-76
2023/10/03 11:36:57;;;;;;;10.90;5.55;;;23.80;64.80;;;;;;5079384;28;20019;-76
2023/10/03 11:39:23;;;;;;;12.65;6.97;;;23.80;64.70;;;;;;5072570;28;20463;-76
2023/10/03 11:41:49;;;;;;;15.00;8.90;;;23.80;63.90;;;;;;5082989;28;20096;-76
2023/10/03 11:44:19;;;;;;;12.13;6.65;;;23.80;64.60;;;;;;5076338;28;20025;-77
2023/10/03 11:46:46;;;;;;;12.60;6.72;;;23.90;64.70;;;;;;5069019;28;20116;-77
2023/10/03 11:49:15;;;;;;;16.85;9.25;;;23.90;64.80;;;;;;5084744;28;20370;-77
2023/10/03 11:51:45;;;;;;;16.52;9.05;;;23.90;63.50;;;;;;5072958;28;20115;-77
2023/10/03 11:54:13;;;;;;;17.33;9.13;;;24.00;63.60;;;;;;5073461;28;20060;-76
2023/10/03 11:56:44;;;;;;;12.48;6.90;;;24.00;64.80;;;;;;5075935;28;20536;-77
2023/10/03 11:59:17;;;;;;;20.23;9.85;;;24.00;64.00;;;;;;5088893;28;20024;-77
2023/10/03 12:01:56;;;;;;;17.02;7.88;;;24.00;63.50;;;;;;5070535;28;20024;-77
2023/10/03 12:04:24;;;;;;;11.32;6.80;;;24.00;62.70;;;;;;5070669;28;20539;-77
2023/10/03 12:06:50;;;;;;;12.25;6.70;;;24.10;63.20;;;;;;5078029;28;20501;-76
2023/10/03 12:09:17;;;;;;;20.95;9.93;;;24.00;62.60;;;;;;5085886;28;20013;-76
2023/10/03 12:11:43;;;;;;;16.13;8.07;;;24.10;62.90;;;;;;5080526;28;20110;-77
2023/10/03 12:14:09;;;;;;;11.52;6.90;;;24.10;63.00;;;;;;5072644;28;20074;-77
2023/10/03 12:16:38;;;;;;;13.40;7.97;;;24.20;62.50;;;;;;5070922;28;20020;-77
2023/10/03 12:19:05;;;;;;;12.75;7.70;;;24.20;62.80;;;;;;5073025;28;20371;-77
2023/10/03 12:21:31;;;;;;;17.75;9.15;;;24.20;61.60;;;;;;5075548;28;20425;-77
2023/10/03 12:23:57;;;;;;;15.15;8.55;;;24.20;60.80;;;;;;5076260;28;20062;-77
2023/10/03 12:26:24;;;;;;;18.52;8.60;;;24.20;60.90;;;;;;5078809;28;20021;-76
2023/10/03 12:28:52;;;;;;;15.60;8.55;;;24.20;60.50;;;;;;5078859;28;20120;-76
2023/10/03 12:31:25;;;;;;;15.18;8.15;;;24.30;60.40;;;;;;5069735;28;20101;-77
2023/10/03 12:33:51;;;;;;;16.67;7.85;;;24.30;61.00;;;;;;5077464;28;20029;-77
2023/10/03 12:36:17;;;;;;;13.82;7.72;;;24.30;59.80;;;;;;5076705;28;20013;-77
2023/10/03 12:38:43;;;;;;;16.42;9.40;;;24.20;58.30;;;;;;5078164;28;20052;-77
2023/10/03 12:41:09;;;;;;;19.80;9.48;;;24.30;58.60;;;;;;5082056;28;20038;-76
2023/10/03 12:43:37;;;;;;;16.30;8.85;;;24.30;57.50;;;;;;5083080;28;20017;-77
2023/10/03 12:46:04;;;;;;;13.60;8.02;;;24.30;58.30;;;;;;5074526;28;20040;-78
2023/10/03 12:48:30;;;;;;;21.00;11.10;;;24.20;57.30;;;;;;5070892;28;20047;-78
2023/10/03 12:50:56;;;;;;;14.80;7.53;;;24.20;57.50;;;;;;5070206;28;20028;-77
2023/10/03 12:53:23;;;;;;;16.10;8.32;;;24.20;58.50;;;;;;5070818;28;20480;-78
2023/10/03 12:55:49;;;;;;;15.98;8.07;;;24.20;58.40;;;;;;5070688;28;20062;-78